Time;durP1;ratioP1;P1;durP2;ratioP2;P2;SDS_P1;SDS_P2;PMS_P1;PMS_P2;Temp;Humidity;BMP_temperature;BMP_pressure;BME280_temperature;BME280_humidity;BME280_pressure;Samples;Min_cycle;Max_cycle;Signal;HPM_P1;HPM_P2
2021/10/14 00:00:09;;;;;;;12.75;8.13;;;7.90;99.90;;;;;;5099701;28;20060;-48
2021/10/14 00:02:35;;;;;;;10.52;7.57;;;8.00;99.90;;;;;;5059315;28;20040;-48
2021/10/14 00:05:01;;;;;;;9.73;7.53;;;8.10;99.90;;;;;;5074978;28;20055;-48
2021/10/14 00:07:27;;;;;;;10.30;7.30;;;8.00;99.90;;;;;;5070788;28;20025;-48
2021/10/14 00:09:53;;;;;;;11.60;7.03;;;7.90;99.90;;;;;;5080127;28;20024;-49
2021/10/14 00:12:19;;;;;;;9.65;7.50;;;7.90;99.90;;;;;;5075986;28;20031;-47
2021/10/14 00:14:44;;;;;;;11.52;7.63;;;7.90;99.90;;;;;;5075488;28;20425;-48
2021/10/14 00:17:10;;;;;;;7.97;6.78;;;7.90;99.90;;;;;;5076617;28;20472;-48
2021/10/14 00:19:36;;;;;;;10.57;7.15;;;7.90;99.90;;;;;;5074046;28;20077;-47
2021/10/14 00:22:02;;;;;;;11.00;6.93;;;7.90;99.90;;;;;;5081476;28;20032;-49
2021/10/14 00:24:28;;;;;;;10.05;7.60;;;7.80;99.90;;;;;;5061289;28;20151;-48
2021/10/14 00:26:54;;;;;;;10.40;6.90;;;7.80;99.90;;;;;;5052138;28;20120;-48
2021/10/14 00:29:20;;;;;;;10.60;7.90;;;7.70;99.90;;;;;;5055674;28;20120;-49
2021/10/14 00:31:45;;;;;;;9.63;6.55;;;7.60;99.90;;;;;;5036821;28;20029;-48
2021/10/14 00:34:11;;;;;;;10.40;7.75;;;7.60;99.90;;;;;;5039460;28;20058;-49
2021/10/14 00:36:37;;;;;;;13.30;6.97;;;7.60;99.90;;;;;;5072350;28;20098;-48
2021/10/14 00:39:03;;;;;;;9.73;7.60;;;7.60;99.90;;;;;;5041887;28;20424;-48
2021/10/14 00:41:28;;;;;;;9.60;6.97;;;7.60;99.90;;;;;;5069931;28;20067;-48
2021/10/14 00:43:56;;;;;;;10.35;7.40;;;7.60;99.90;;;;;;5027835;28;20036;-49
2021/10/14 00:46:22;;;;;;;8.18;6.78;;;7.60;99.90;;;;;;5074344;28;20462;-47
2021/10/14 00:48:48;;;;;;;10.70;7.35;;;7.60;99.90;;;;;;5075081;28;20028;-50
2021/10/14 00:51:14;;;;;;;9.00;6.93;;;7.60;99.90;;;;;;5057227;28;20479;-47
2021/10/14 00:53:40;;;;;;;11.23;7.75;;;7.60;99.90;;;;;;5052135;28;20035;-48
2021/10/14 00:56:07;;;;;;;9.20;7.47;;;7.60;99.90;;;;;;5046045;28;20044;-48
2021/10/14 00:58:37;;;;;;;7.35;5.90;;;7.60;99.90;;;;;;5088102;28;20066;-48
2021/10/14 01:01:04;;;;;;;7.97;6.30;;;7.60;99.90;;;;;;5086411;28;20040;-48
2021/10/14 01:03:30;;;;;;;8.70;6.25;;;7.60;99.90;;;;;;5089783;28;20039;-48
2021/10/14 01:05:57;;;;;;;8.02;6.82;;;7.60;99.90;;;;;;5085724;28;20036;-48
2021/10/14 01:08:24;;;;;;;7.18;6.22;;;7.60;99.90;;;;;;5086476;28;20427;-48
2021/10/14 01:10:51;;;;;;;9.18;5.25;;;7.60;99.90;;;;;;5089901;28;20038;-48
2021/10/14 01:13:17;;;;;;;10.48;6.43;;;7.60;99.90;;;;;;5084027;28;20503;-48
2021/10/14 01:15:46;;;;;;;9.32;6.03;;;7.70;99.90;;;;;;5070117;28;20063;-48
2021/10/14 01:18:13;;;;;;;11.35;5.57;;;7.80;99.90;;;;;;5090063;28;20093;-48
2021/10/14 01:20:39;;;;;;;7.97;5.88;;;7.70;99.90;;;;;;5087290;28;20031;-50
2021/10/14 01:23:06;;;;;;;6.78;5.32;;;7.70;99.90;;;;;;5086168;28;20099;-48
2021/10/14 01:25:32;;;;;;;11.55;6.40;;;7.60;99.90;;;;;;5089785;28;20071;-49
2021/10/14 01:27:58;;;;;;;12.23;6.80;;;7.50;99.90;;;;;;5082260;28;20450;-48
2021/10/14 01:30:24;;;;;;;8.95;6.55;;;7.50;99.90;;;;;;5072402;28;20081;-49
2021/10/14 01:32:50;;;;;;;10.68;7.10;;;7.50;99.90;;;;;;5080637;28;20380;-50
2021/10/14 01:35:17;;;;;;;7.30;6.03;;;7.60;99.90;;;;;;5083583;28;20048;-49
2021/10/14 01:37:43;;;;;;;7.50;6.38;;;7.60;99.90;;;;;;5079274;28;20468;-48
2021/10/14 01:40:10;;;;;;;8.80;5.60;;;7.60;99.90;;;;;;5090789;28;20114;-49
2021/10/14 01:42:36;;;;;;;7.80;5.70;;;7.60;99.90;;;;;;5079390;28;20509;-49
2021/10/14 01:45:03;;;;;;;8.35;5.65;;;7.60;99.90;;;;;;5063177;28;20055;-49
2021/10/14 01:47:33;;;;;;;6.97;5.03;;;7.50;99.90;;;;;;5052979;28;20032;-48
2021/10/14 01:49:59;;;;;;;7.13;5.35;;;7.50;99.90;;;;;;5094358;28;20031;-48
2021/10/14 01:52:25;;;;;;;6.25;5.20;;;7.50;99.90;;;;;;5072758;28;20021;-49
2021/10/14 01:54:51;;;;;;;7.53;4.80;;;7.50;99.90;;;;;;5079970;28;20436;-49
2021/10/14 01:57:16;;;;;;;7.35;5.13;;;7.50;99.90;;;;;;5067704;28;20032;-48
2021/10/14 01:59:42;;;;;;;6.65;4.57;;;7.50;99.90;;;;;;5081230;28;20478;-48
2021/10/14 02:02:08;;;;;;;7.30;5.25;;;7.50;99.90;;;;;;5084704;28;20547;-48
2021/10/14 02:04:34;;;;;;;7.93;4.50;;;7.50;99.90;;;;;;5080943;28;20050;-48
2021/10/14 02:07:00;;;;;;;7.07;4.75;;;7.60;99.90;;;;;;5082793;28;20025;-48
2021/10/14 02:09:25;;;;;;;5.65;4.75;;;7.50;99.90;;;;;;5082222;28;20123;-48
2021/10/14 02:11:51;;;;;;;7.60;6.80;;;7.50;99.90;;;;;;5081137;28;20466;-48
2021/10/14 02:14:17;;;;;;;11.68;7.25;;;7.40;99.90;;;;;;5072650;28;20021;-48
2021/10/14 02:16:43;;;;;;;9.10;7.18;;;7.40;99.90;;;;;;5081469;28;20029;-48
2021/10/14 02:19:09;;;;;;;10.95;7.13;;;7.40;99.90;;;;;;5114144;27;20449;-49
2021/10/14 02:21:35;;;;;;;8.30;6.85;;;7.30;99.90;;;;;;5049678;28;20029;-48
2021/10/14 02:24:01;;;;;;;8.88;6.97;;;7.30;99.90;;;;;;5079481;28;20039;-48
2021/10/14 02:26:27;;;;;;;7.63;6.40;;;7.30;99.90;;;;;;5075946;28;20029;-48
2021/10/14 02:28:52;;;;;;;10.02;6.43;;;7.30;99.90;;;;;;5066481;28;20085;-48
2021/10/14 02:31:18;;;;;;;7.53;5.97;;;7.30;99.90;;;;;;5080320;28;20115;-49
2021/10/14 02:33:44;;;;;;;7.85;5.85;;;7.30;99.90;;;;;;5084491;28;20036;-48
2021/10/14 02:36:10;;;;;;;10.00;6.32;;;7.30;99.90;;;;;;5075004;28;20052;-47
2021/10/14 02:38:35;;;;;;;7.80;5.60;;;7.20;99.90;;;;;;5067100;28;20050;-49
2021/10/14 02:41:02;;;;;;;7.38;5.30;;;7.30;99.90;;;;;;5081343;28;20205;-48
2021/10/14 02:43:29;;;;;;;6.00;4.72;;;7.20;99.90;;;;;;5068628;28;20039;-48
2021/10/14 02:45:55;;;;;;;8.77;4.90;;;7.30;99.90;;;;;;5077054;28;20070;-49
2021/10/14 02:48:20;;;;;;;8.38;4.97;;;7.30;99.90;;;;;;5077784;28;20036;-48
2021/10/14 02:50:47;;;;;;;6.65;4.80;;;7.30;99.90;;;;;;5081262;28;20515;-48
2021/10/14 02:53:12;;;;;;;6.72;4.70;;;7.30;99.90;;;;;;5074528;28;20098;-48
2021/10/14 02:55:38;;;;;;;7.28;5.10;;;7.30;99.90;;;;;;5077190;28;20464;-48
2021/10/14 02:58:04;;;;;;;7.30;5.20;;;7.30;99.90;;;;;;5082503;28;20029;-48
2021/10/14 03:00:30;;;;;;;6.80;4.40;;;7.30;99.90;;;;;;5075698;28;20235;-48
2021/10/14 03:02:56;;;;;;;4.90;4.28;;;7.30;99.90;;;;;;5079573;28;20081;-49
2021/10/14 03:05:21;;;;;;;5.63;4.38;;;7.40;99.90;;;;;;5075674;28;20078;-48
2021/10/14 03:07:47;;;;;;;6.97;4.80;;;7.40;99.90;;;;;;5082675;28;20024;-47
2021/10/14 03:10:13;;;;;;;6.32;4.43;;;7.40;99.90;;;;;;5080698;28;20036;-48
2021/10/14 03:12:39;;;;;;;7.03;4.82;;;7.30;99.90;;;;;;5080459;28;20020;-48
2021/10/14 03:15:05;;;;;;;6.97;4.93;;;7.40;99.90;;;;;;5079359;28;20028;-48
2021/10/14 03:17:31;;;;;;;5.50;4.70;;;7.40;99.90;;;;;;5072553;28;20069;-47
2021/10/14 03:19:57;;;;;;;5.68;4.60;;;7.50;99.90;;;;;;5078435;28;20064;-49
2021/10/14 03:22:23;;;;;;;7.05;4.18;;;7.40;99.90;;;;;;5106244;27;20500;-48
2021/10/14 03:24:49;;;;;;;8.82;4.93;;;7.50;99.90;;;;;;5068461;28;20177;-48
2021/10/14 03:27:15;;;;;;;5.00;4.38;;;7.60;99.90;;;;;;5069867;28;20025;-47
2021/10/14 03:29:41;;;;;;;4.95;4.40;;;7.60;99.90;;;;;;5046180;28;20036;-48
2021/10/14 03:32:07;;;;;;;8.32;4.82;;;7.60;99.90;;;;;;5080703;28;20032;-48
2021/10/14 03:34:33;;;;;;;7.57;5.05;;;7.70;99.90;;;;;;5080636;28;20048;-48
2021/10/14 03:36:59;;;;;;;7.18;4.95;;;7.70;99.90;;;;;;5065319;28;20036;-49
2021/10/14 03:39:25;;;;;;;5.63;5.00;;;7.70;99.90;;;;;;5081146;28;20028;-48
2021/10/14 03:41:51;;;;;;;5.65;4.85;;;7.80;99.90;;;;;;5075604;28;20032;-48
2021/10/14 03:44:17;;;;;;;6.90;5.20;;;7.90;99.90;;;;;;5061818;28;20048;-48
2021/10/14 03:46:43;;;;;;;5.05;4.15;;;7.90;99.90;;;;;;5072781;28;20105;-48
2021/10/14 03:49:09;;;;;;;6.32;4.68;;;7.80;99.90;;;;;;5079807;28;20047;-48
2021/10/14 03:51:35;;;;;;;8.77;4.88;;;7.80;99.90;;;;;;5081465;28;20470;-48
2021/10/14 03:54:01;;;;;;;7.25;4.82;;;7.80;99.90;;;;;;5081160;28;20059;-48
2021/10/14 03:56:26;;;;;;;6.82;5.10;;;7.80;99.90;;;;;;5106029;27;20041;-47
2021/10/14 03:58:53;;;;;;;8.98;5.35;;;7.80;99.90;;;;;;5056113;28;20127;-48
2021/10/14 04:01:19;;;;;;;5.93;4.95;;;7.80;99.90;;;;;;5079545;28;20024;-48
2021/10/14 04:03:44;;;;;;;7.25;5.03;;;7.70;99.90;;;;;;5077346;28;20040;-48
2021/10/14 04:06:11;;;;;;;8.57;5.50;;;7.70;99.90;;;;;;5085067;28;20475;-48
2021/10/14 04:08:37;;;;;;;8.82;5.32;;;7.80;99.90;;;;;;5076444;28;20117;-48
2021/10/14 04:11:03;;;;;;;6.80;5.40;;;7.80;99.90;;;;;;5073918;28;20036;-48
2021/10/14 04:13:30;;;;;;;9.10;6.72;;;7.70;99.90;;;;;;5076654;28;20044;-48
2021/10/14 04:15:55;;;;;;;8.52;6.70;;;7.70;99.90;;;;;;5082074;28;20028;-48
2021/10/14 04:18:21;;;;;;;9.07;6.22;;;7.70;99.90;;;;;;5080519;28;20171;-48
2021/10/14 04:20:47;;;;;;;11.73;6.63;;;7.70;99.90;;;;;;5072438;28;20028;-48
2021/10/14 04:23:17;;;;;;;10.30;6.57;;;7.80;99.90;;;;;;5052609;28;20045;-47
2021/10/14 04:25:43;;;;;;;15.25;7.13;;;7.90;99.90;;;;;;5089308;28;20036;-47
2021/10/14 04:28:09;;;;;;;12.05;6.53;;;7.90;99.90;;;;;;5070511;28;20038;-48
2021/10/14 04:30:34;;;;;;;12.55;7.65;;;7.90;99.90;;;;;;5083376;28;20085;-49
2021/10/14 04:33:01;;;;;;;9.98;6.97;;;7.90;99.90;;;;;;5060537;28;20044;-48
2021/10/14 04:35:27;;;;;;;11.32;6.82;;;7.90;99.90;;;;;;5047563;28;20110;-48
2021/10/14 04:37:52;;;;;;;6.55;5.85;;;8.00;99.90;;;;;;5074405;28;20028;-48
2021/10/14 04:40:18;;;;;;;14.82;7.05;;;7.90;99.90;;;;;;5068100;28;20139;-47
2021/10/14 04:42:44;;;;;;;9.18;6.40;;;7.90;99.90;;;;;;5080796;28;20458;-51
2021/10/14 04:45:10;;;;;;;10.73;6.63;;;7.90;99.90;;;;;;5070897;28;20037;-48
2021/10/14 04:47:37;;;;;;;13.75;9.30;;;7.90;99.90;;;;;;5096323;28;20037;-48
2021/10/14 04:50:04;;;;;;;20.77;12.45;;;7.90;99.90;;;;;;5083516;28;20032;-48
2021/10/14 04:52:31;;;;;;;17.35;10.80;;;7.90;99.90;;;;;;5072644;28;20029;-48
2021/10/14 04:54:56;;;;;;;9.27;7.57;;;7.90;99.90;;;;;;5078326;28;20029;-48
2021/10/14 04:57:22;;;;;;;8.60;7.60;;;7.90;99.90;;;;;;5110130;28;20432;-48
2021/10/14 04:59:48;;;;;;;10.85;8.43;;;7.90;99.90;;;;;;5070676;28;20396;-48
2021/10/14 05:02:14;;;;;;;8.98;7.65;;;7.90;99.90;;;;;;5065258;28;20017;-49
2021/10/14 05:04:39;;;;;;;10.57;8.55;;;8.00;99.90;;;;;;5078557;28;20040;-47
2021/10/14 05:07:05;;;;;;;16.00;11.30;;;8.00;99.90;;;;;;5072683;28;20448;-48
2021/10/14 05:09:31;;;;;;;10.27;7.47;;;8.00;99.90;;;;;;5092231;28;20062;-47
2021/10/14 05:11:57;;;;;;;8.80;7.40;;;8.00;99.90;;;;;;5068333;28;20028;-48
2021/10/14 05:14:23;;;;;;;8.32;6.35;;;8.00;99.90;;;;;;5079156;28;20078;-48
2021/10/14 05:16:48;;;;;;;10.40;6.68;;;7.90;99.90;;;;;;5076800;28;20032;-49
2021/10/14 05:19:14;;;;;;;8.68;6.70;;;7.80;99.90;;;;;;5092546;28;20067;-49
2021/10/14 05:21:40;;;;;;;9.90;7.25;;;7.90;99.90;;;;;;5075095;28;20028;-48
2021/10/14 05:24:06;;;;;;;11.82;7.53;;;7.80;99.90;;;;;;5079772;28;20034;-48
2021/10/14 05:26:32;;;;;;;9.45;7.55;;;7.90;99.90;;;;;;5086777;28;20040;-49
2021/10/14 05:28:59;;;;;;;13.43;8.07;;;7.90;99.90;;;;;;5067177;28;20028;-48
2021/10/14 05:31:26;;;;;;;10.88;8.02;;;7.90;99.90;;;;;;5079816;28;20034;-48
2021/10/14 05:33:54;;;;;;;11.27;8.10;;;8.00;99.90;;;;;;5059827;28;20387;-48
2021/10/14 05:36:20;;;;;;;11.10;9.38;;;8.00;99.90;;;;;;5074407;28;20043;-48
2021/10/14 05:38:46;;;;;;;12.43;9.90;;;8.10;99.90;;;;;;5075132;28;20036;-47
2021/10/14 05:41:12;;;;;;;15.75;9.38;;;8.10;99.90;;;;;;5075036;28;20033;-48
2021/10/14 05:43:39;;;;;;;9.95;7.78;;;8.20;99.90;;;;;;5073006;28;20035;-48
2021/10/14 05:46:04;;;;;;;9.45;8.13;;;8.20;99.90;;;;;;5085635;28;20040;-48
2021/10/14 05:48:30;;;;;;;8.82;7.88;;;8.30;99.90;;;;;;5078337;28;20032;-49
2021/10/14 05:50:56;;;;;;;10.45;7.70;;;8.30;99.90;;;;;;5075536;28;20044;-47
2021/10/14 05:53:22;;;;;;;10.05;8.00;;;8.20;99.90;;;;;;5086805;28;20032;-48
2021/10/14 05:55:48;;;;;;;10.95;8.70;;;8.20;99.90;;;;;;5061087;28;20043;-48
2021/10/14 05:58:15;;;;;;;10.18;8.13;;;8.10;99.90;;;;;;5044135;28;20118;-48
2021/10/14 06:00:40;;;;;;;21.42;13.48;;;8.20;99.90;;;;;;5060130;28;20039;-48
2021/10/14 06:03:06;;;;;;;12.82;9.25;;;8.30;99.90;;;;;;5088700;28;20032;-48
2021/10/14 06:05:32;;;;;;;7.72;6.30;;;8.10;99.90;;;;;;5071686;28;20035;-48
2021/10/14 06:07:58;;;;;;;18.42;9.63;;;7.80;99.90;;;;;;5071404;28;20029;-48
2021/10/14 06:10:23;;;;;;;11.18;7.90;;;7.90;99.90;;;;;;5112742;27;20111;-47
2021/10/14 06:12:49;;;;;;;10.88;7.60;;;8.10;99.90;;;;;;5054358;28;20067;-48
2021/10/14 06:15:17;;;;;;;7.20;5.95;;;8.10;99.90;;;;;;5057186;28;20032;-48
2021/10/14 06:17:43;;;;;;;8.02;5.57;;;8.10;99.90;;;;;;5058893;28;20040;-48
2021/10/14 06:20:09;;;;;;;7.03;5.18;;;8.10;99.90;;;;;;5075950;28;20056;-48
2021/10/14 06:22:36;;;;;;;10.18;6.45;;;8.10;99.90;;;;;;5093927;28;20036;-50
2021/10/14 06:25:02;;;;;;;8.63;6.43;;;7.80;99.90;;;;;;5083735;28;20084;-49
2021/10/14 06:27:28;;;;;;;11.07;6.90;;;7.90;99.90;;;;;;5060652;28;20041;-46
2021/10/14 06:29:56;;;;;;;10.40;5.25;;;8.10;99.90;;;;;;5061009;28;20044;-47
2021/10/14 06:32:22;;;;;;;10.77;6.90;;;8.40;99.90;;;;;;5082028;28;20119;-46
2021/10/14 06:34:47;;;;;;;8.25;4.90;;;8.60;99.90;;;;;;5074353;28;20461;-48
2021/10/14 06:37:13;;;;;;;14.35;8.48;;;8.60;99.90;;;;;;5079218;28;20020;-46
2021/10/14 06:39:39;;;;;;;9.82;8.02;;;8.40;99.90;;;;;;5057867;28;20064;-49
2021/10/14 06:42:04;;;;;;;8.82;5.65;;;8.60;99.90;;;;;;5070559;28;20024;-48
2021/10/14 06:44:30;;;;;;;17.77;8.50;;;8.40;99.90;;;;;;5105148;27;20052;-47
2021/10/14 06:46:56;;;;;;;10.70;7.00;;;8.60;99.90;;;;;;5073228;28;20528;-46
2021/10/14 06:49:22;;;;;;;9.23;7.20;;;8.50;99.90;;;;;;5071597;28;20028;-47
2021/10/14 06:51:47;;;;;;;10.30;7.57;;;8.50;99.90;;;;;;5050565;28;20075;-46
2021/10/14 06:54:14;;;;;;;10.07;7.60;;;8.40;99.90;;;;;;5069204;28;20025;-48
2021/10/14 06:56:40;;;;;;;10.95;6.90;;;8.40;99.90;;;;;;5070860;28;20089;-50
2021/10/14 06:59:06;;;;;;;15.60;8.65;;;8.50;99.90;;;;;;5076696;28;20033;-46
2021/10/14 07:01:31;;;;;;;8.95;6.10;;;8.60;99.90;;;;;;5078660;28;20051;-48
2021/10/14 07:03:57;;;;;;;11.98;7.90;;;8.50;99.90;;;;;;5076628;28;20103;-48
2021/10/14 07:06:23;;;;;;;11.80;7.68;;;8.60;99.90;;;;;;5077213;28;20032;-48
2021/10/14 07:08:49;;;;;;;19.30;9.07;;;8.60;99.90;;;;;;5083654;28;20035;-46
2021/10/14 07:11:14;;;;;;;7.93;7.10;;;8.60;99.90;;;;;;5075357;28;20040;-48
2021/10/14 07:13:44;;;;;;;8.48;6.18;;;8.40;99.90;;;;;;5081015;28;20414;-48
2021/10/14 07:16:11;;;;;;;9.95;7.05;;;8.50;99.90;;;;;;5074854;28;20067;-45
2021/10/14 07:18:36;;;;;;;12.38;8.45;;;8.60;99.90;;;;;;5078224;28;20173;-48
2021/10/14 07:21:02;;;;;;;10.18;6.68;;;9.30;99.90;;;;;;5076462;28;20714;-48
2021/10/14 07:23:29;;;;;;;10.32;6.38;;;11.20;99.90;;;;;;5074930;28;20036;-48
2021/10/14 07:25:55;;;;;;;9.23;5.68;;;12.10;99.90;;;;;;5076827;28;20395;-47
2021/10/14 07:28:21;;;;;;;13.23;7.75;;;13.30;99.90;;;;;;5087535;28;20045;-47
2021/10/14 07:30:47;;;;;;;9.02;7.65;;;15.10;99.90;;;;;;5085035;28;20119;-48
2021/10/14 07:33:13;;;;;;;10.65;7.30;;;16.20;99.90;;;;;;5054986;28;20127;-48
2021/10/14 07:35:41;;;;;;;7.50;6.10;;;16.90;99.90;;;;;;5094734;28;20439;-48
2021/10/14 07:38:10;;;;;;;10.00;6.53;;;16.50;99.90;;;;;;5052075;28;20040;-47
2021/10/14 07:40:39;;;;;;;9.73;7.72;;;17.20;99.90;;;;;;5057432;28;20028;-47
2021/10/14 07:43:08;;;;;;;8.50;7.00;;;17.70;99.90;;;;;;5059969;28;20033;-47
2021/10/14 07:45:34;;;;;;;10.50;6.82;;;18.20;99.90;;;;;;5069466;28;20040;-48
2021/10/14 07:48:00;;;;;;;10.05;6.80;;;17.80;99.90;;;;;;5057008;28;20024;-48
2021/10/14 07:50:26;;;;;;;10.45;6.30;;;16.70;99.90;;;;;;5049291;28;20026;-48
2021/10/14 07:52:52;;;;;;;14.20;7.45;;;15.40;99.90;;;;;;5027785;28;20049;-47
2021/10/14 07:55:17;;;;;;;9.80;7.50;;;14.30;99.90;;;;;;5080430;28;20040;-47
2021/10/14 08:15:54;;;;;;;9.40;7.50;;;12.80;99.90;;;;;;5162077;27;20390;-47
2021/10/14 08:18:22;;;;;;;10.30;8.77;;;12.10;99.90;;;;;;5148692;27;20027;-48
2021/10/14 08:20:49;;;;;;;8.25;7.28;;;12.20;99.90;;;;;;5077734;28;20072;-47
2021/10/14 08:23:17;;;;;;;9.23;8.10;;;12.10;99.90;;;;;;5052127;28;20135;-47
2021/10/14 08:25:43;;;;;;;10.88;7.53;;;12.10;99.90;;;;;;5066827;28;20095;-48
2021/10/14 08:28:09;;;;;;;7.97;7.18;;;11.80;99.90;;;;;;5067493;28;20463;-48
2021/10/14 08:30:34;;;;;;;8.95;7.60;;;11.60;99.90;;;;;;5065097;28;20037;-46
2021/10/14 08:33:00;;;;;;;8.77;7.68;;;11.70;99.90;;;;;;5072232;28;20066;-48
2021/10/14 08:35:26;;;;;;;9.68;7.47;;;11.80;99.90;;;;;;5068455;28;20043;-48
2021/10/14 08:37:52;;;;;;;14.20;10.27;;;11.90;99.90;;;;;;5067243;28;20115;-47
2021/10/14 08:40:20;;;;;;;10.68;7.95;;;12.00;99.90;;;;;;5066949;28;20029;-48
2021/10/14 08:43:10;;;;;;;10.40;7.53;;;12.20;99.90;;;;;;5060972;28;20098;-48
2021/10/14 08:45:37;;;;;;;9.85;8.75;;;12.30;99.90;;;;;;5065242;28;20052;-49
2021/10/14 08:48:05;;;;;;;8.70;6.65;;;12.70;99.90;;;;;;5031400;28;20059;-46
2021/10/14 08:50:33;;;;;;;11.75;8.68;;;12.60;99.90;;;;;;5062995;28;20032;-49
2021/10/14 08:52:59;;;;;;;12.27;9.20;;;12.50;99.90;;;;;;5088558;28;20036;-51
2021/10/14 08:55:27;;;;;;;9.70;8.70;;;11.90;99.90;;;;;;5133811;27;20027;-53
2021/10/14 08:57:54;;;;;;;11.65;9.55;;;12.50;99.90;;;;;;5136306;27;20466;-47
2021/10/14 09:00:20;;;;;;;10.32;8.20;;;13.20;99.90;;;;;;5136603;27;20386;-46
2021/10/14 09:02:45;;;;;;;9.70;8.10;;;13.50;99.90;;;;;;5113951;27;20035;-49
2021/10/14 09:05:14;;;;;;;9.63;8.63;;;13.80;99.90;;;;;;5140862;27;20034;-51
2021/10/14 09:07:41;;;;;;;11.20;9.27;;;13.70;99.90;;;;;;5095093;27;20687;-47
2021/10/14 09:10:12;;;;;;;10.98;9.02;;;13.60;99.90;;;;;;5141580;27;20026;-48
2021/10/14 09:12:46;;;;;;;14.05;12.32;;;13.40;99.90;;;;;;5158437;27;20023;-48
2021/10/14 09:15:17;;;;;;;14.80;10.07;;;13.20;99.90;;;;;;5123304;27;20058;-53
2021/10/14 09:17:47;;;;;;;19.15;11.18;;;12.80;99.90;;;;;;5123939;27;20019;-47
2021/10/14 09:20:34;;;;;;;9.07;8.25;;;13.00;99.90;;;;;;5112897;27;20051;-47
2021/10/14 09:23:21;;;;;;;12.23;8.80;;;13.50;99.90;;;;;;5113677;27;20493;-48
2021/10/14 09:25:52;;;;;;;13.60;8.93;;;13.90;99.90;;;;;;5124122;27;20087;-47
2021/10/14 09:28:22;;;;;;;15.80;9.32;;;14.00;99.90;;;;;;5108439;27;20023;-46
2021/10/14 09:30:59;;;;;;;23.13;8.50;;;13.90;99.90;;;;;;5089656;28;20025;-48
2021/10/14 09:33:46;;;;;;;10.20;8.52;;;14.00;99.90;;;;;;5097535;28;20071;-45
2021/10/14 09:36:13;;;;;;;16.75;10.23;;;13.50;99.90;;;;;;5094654;28;20043;-46
2021/10/14 09:38:39;;;;;;;11.40;8.13;;;13.10;99.90;;;;;;5082761;28;20025;-47
2021/10/14 09:41:08;;;;;;;10.90;9.10;;;13.10;99.90;;;;;;5085650;28;20131;-45
2021/10/14 09:43:34;;;;;;;12.27;10.00;;;13.10;99.90;;;;;;5078324;28;20119;-46
2021/10/14 09:46:01;;;;;;;10.43;8.90;;;12.60;99.90;;;;;;5094276;28;20036;-47
2021/10/14 09:48:26;;;;;;;48.40;29.00;;;12.70;99.90;;;;;;5071997;28;20443;-48
2021/10/14 09:50:56;;;;;;;15.45;10.88;;;12.60;99.90;;;;;;5053650;28;20055;-48
2021/10/14 09:53:24;;;;;;;12.30;10.05;;;12.30;99.90;;;;;;5065711;28;20036;-45
2021/10/14 09:55:51;;;;;;;11.25;9.52;;;12.10;99.90;;;;;;5074351;28;20047;-47
2021/10/14 09:58:18;;;;;;;82.78;45.50;;;11.90;99.90;;;;;;5092363;28;20496;-47
2021/10/14 10:00:45;;;;;;;13.13;11.65;;;11.70;99.90;;;;;;5105357;27;20189;-48
2021/10/14 10:03:15;;;;;;;31.25;21.70;;;12.30;99.90;;;;;;5101090;27;20347;-46
2021/10/14 10:05:46;;;;;;;30.42;20.33;;;13.70;99.90;;;;;;5118362;27;20072;-46
2021/10/14 10:08:20;;;;;;;21.48;15.63;;;15.10;99.90;;;;;;5110439;27;20011;-49
2021/10/14 10:10:46;;;;;;;15.48;12.07;;;16.10;99.90;;;;;;5119474;27;20077;-46
2021/10/14 10:13:13;;;;;;;23.45;16.42;;;15.80;99.90;;;;;;5110616;27;20076;-47
2021/10/14 10:15:42;;;;;;;12.88;10.35;;;15.10;99.90;;;;;;5073678;28;20052;-45
2021/10/14 10:18:26;;;;;;;27.80;17.02;;;14.50;99.90;;;;;;5107043;27;20110;-46
2021/10/14 10:20:54;;;;;;;11.43;8.43;;;13.90;99.90;;;;;;5100597;27;20615;-45
2021/10/14 10:23:41;;;;;;;10.25;7.07;;;13.70;99.90;;;;;;5099410;28;20032;-47
2021/10/14 10:26:50;;;;;;;8.27;6.65;;;13.40;99.90;;;;;;5101066;27;20019;-47
2021/10/14 10:29:27;;;;;;;12.45;9.48;;;12.70;99.90;;;;;;5068780;28;20112;-47
2021/10/14 10:31:55;;;;;;;15.00;10.88;;;12.50;99.90;;;;;;5047946;28;20075;-46
2021/10/14 10:34:56;;;;;;;10.40;9.40;;;12.80;99.90;;;;;;5064393;28;20048;-46
2021/10/14 10:37:36;;;;;;;10.53;9.73;;;13.90;99.90;;;;;;5066294;28;20434;-47
2021/10/14 10:40:19;;;;;;;17.92;9.10;;;15.40;99.90;;;;;;5070521;28;20284;-45
2021/10/14 10:43:01;;;;;;;9.57;8.57;;;16.60;99.90;;;;;;5043469;28;20139;-45
2021/10/14 10:45:42;;;;;;;8.00;6.93;;;17.70;99.90;;;;;;5065696;28;20079;-47
2021/10/14 10:48:09;;;;;;;14.13;9.80;;;17.90;99.90;;;;;;5068683;28;20127;-48
2021/10/14 10:50:40;;;;;;;12.10;8.27;;;17.30;99.90;;;;;;5068450;28;20037;-48
2021/10/14 10:53:17;;;;;;;7.72;5.85;;;15.10;99.90;;;;;;5071123;28;20036;-47
2021/10/14 10:55:50;;;;;;;17.35;12.52;;;13.90;99.90;;;;;;5068152;28;20120;-46
2021/10/14 10:58:46;;;;;;;11.85;9.10;;;13.30;99.90;;;;;;5017919;28;20091;-48
2021/10/14 11:01:14;;;;;;;14.50;10.02;;;12.90;99.90;;;;;;5052615;28;20086;-48
2021/10/14 11:03:50;;;;;;;12.80;9.20;;;12.60;99.90;;;;;;5037921;28;20567;-47
2021/10/14 11:06:16;;;;;;;11.15;8.57;;;12.60;99.90;;;;;;5078125;28;20039;-46
2021/10/14 11:08:42;;;;;;;7.80;6.10;;;12.40;99.90;;;;;;5102581;27;20031;-45
2021/10/14 11:11:09;;;;;;;7.18;6.47;;;12.50;99.90;;;;;;5034885;28;20035;-48
2021/10/14 11:13:41;;;;;;;10.05;8.27;;;12.80;99.90;;;;;;5080332;28;20240;-46
2021/10/14 11:16:08;;;;;;;9.85;8.82;;;13.10;99.90;;;;;;5104701;27;20031;-47
2021/10/14 11:18:35;;;;;;;12.02;9.32;;;13.40;99.90;;;;;;5073956;28;20028;-47
2021/10/14 11:21:03;;;;;;;13.07;11.68;;;14.40;99.90;;;;;;5114916;27;20043;-48
2021/10/14 11:24:03;;;;;;;12.43;8.68;;;14.70;99.90;;;;;;5097011;27;20070;-46
2021/10/14 11:29:25;;;;;;;28.38;15.57;;;14.20;99.90;;;;;;5049413;28;20037;-46
2021/10/14 11:32:05;;;;;;;27.58;14.30;;;14.30;99.90;;;;;;5043418;28;20091;-47
2021/10/14 11:34:31;;;;;;;10.65;7.57;;;13.60;99.90;;;;;;5041050;28;20123;-46
2021/10/14 11:37:05;;;;;;;15.85;10.10;;;13.30;99.90;;;;;;5046112;28;20129;-45
2021/10/14 11:39:44;;;;;;;71.57;34.33;;;12.90;99.90;;;;;;5047609;28;20500;-46
2021/10/14 11:42:13;;;;;;;74.05;33.17;;;12.70;99.90;;;;;;5040628;28;20098;-48
2021/10/14 11:44:44;;;;;;;33.30;16.85;;;12.70;99.90;;;;;;5044495;28;20492;-45
2021/10/14 11:47:15;;;;;;;11.07;8.30;;;12.60;99.90;;;;;;5046193;28;20127;-47
2021/10/14 11:49:42;;;;;;;12.30;7.50;;;12.30;99.90;;;;;;5004108;28;20290;-47
2021/10/14 11:52:11;;;;;;;37.15;19.65;;;12.00;99.90;;;;;;5041530;28;20163;-47
2021/10/14 11:54:38;;;;;;;19.40;11.93;;;12.10;99.90;;;;;;5046902;28;20037;-47
2021/10/14 11:57:06;;;;;;;13.23;8.35;;;12.00;99.90;;;;;;5047488;28;20399;-46
2021/10/14 11:59:33;;;;;;;18.13;12.48;;;12.10;99.90;;;;;;5059473;28;20553;-46
2021/10/14 12:02:09;;;;;;;79.60;39.88;;;12.20;99.90;;;;;;5048710;28;20028;-46
2021/10/14 12:04:44;;;;;;;23.40;12.98;;;12.40;99.90;;;;;;5058380;28;20591;-46
2021/10/14 12:07:15;;;;;;;26.05;16.27;;;12.20;99.90;;;;;;5098064;28;20035;-47
2021/10/14 12:09:41;;;;;;;8.40;6.72;;;12.20;99.90;;;;;;5110125;28;20030;-47
2021/10/14 12:12:09;;;;;;;21.88;11.15;;;12.20;99.90;;;;;;5078268;28;20035;-46
2021/10/14 12:14:36;;;;;;;8.80;6.63;;;12.30;99.90;;;;;;5105323;28;20052;-47
2021/10/14 12:17:13;;;;;;;17.08;11.45;;;12.10;99.90;;;;;;5097230;28;20035;-45
2021/10/14 12:19:42;;;;;;;8.57;6.32;;;12.10;99.90;;;;;;5057692;28;20046;-46
2021/10/14 12:22:09;;;;;;;17.10;11.30;;;12.30;99.90;;;;;;5096670;28;20498;-46
2021/10/14 12:24:50;;;;;;;11.88;8.50;;;12.50;99.90;;;;;;5077053;28;20463;-45
2021/10/14 12:27:16;;;;;;;8.20;6.57;;;12.40;99.90;;;;;;5099566;28;20027;-47
2021/10/14 12:29:46;;;;;;;12.63;8.50;;;12.50;99.90;;;;;;5011484;28;20051;-47
2021/10/14 12:32:20;;;;;;;21.95;14.05;;;12.60;99.90;;;;;;5071010;28;20067;-47
2021/10/14 12:34:52;;;;;;;10.20;7.60;;;12.80;99.90;;;;;;5094691;28;20413;-47
2021/10/14 12:37:22;;;;;;;8.07;6.15;;;12.80;99.90;;;;;;5072281;28;20770;-48
2021/10/14 12:39:48;;;;;;;7.60;6.30;;;12.70;99.90;;;;;;5101689;28;20028;-46
2021/10/14 12:42:17;;;;;;;14.43;9.38;;;12.80;99.90;;;;;;5054394;28;20036;-46
2021/10/14 12:44:57;;;;;;;8.45;6.38;;;12.80;99.90;;;;;;5099138;28;20088;-47
2021/10/14 12:47:37;;;;;;;8.45;7.07;;;12.90;99.90;;;;;;5108714;28;20047;-47
2021/10/14 12:52:37;;;;;;;11.13;9.32;;;12.80;99.90;;;;;;5062841;27;20177;-46
2021/10/14 12:55:06;;;;;;;6.75;6.05;;;12.70;99.90;;;;;;5127606;27;20102;-45
2021/10/14 12:57:32;;;;;;;6.93;5.95;;;12.80;99.90;;;;;;5023762;28;20821;-47
2021/10/14 12:59:58;;;;;;;8.13;6.85;;;12.90;99.90;;;;;;5075994;27;20066;-46
2021/10/14 13:02:23;;;;;;;11.73;7.38;;;13.00;99.90;;;;;;5076610;28;20555;-45
2021/10/14 13:04:49;;;;;;;10.93;6.80;;;13.00;99.90;;;;;;5113594;27;20039;-47
2021/10/14 13:07:15;;;;;;;11.38;9.30;;;13.20;99.90;;;;;;5106806;27;20075;-47
2021/10/14 13:09:41;;;;;;;17.27;12.48;;;13.20;99.90;;;;;;5119458;27;20072;-47
2021/10/14 13:12:08;;;;;;;13.48;7.43;;;13.00;99.90;;;;;;5062757;27;20126;-46